Time;durP1;ratioP1;P1;durP2;ratioP2;P2;SDS_P1;SDS_P2;PMS_P1;PMS_P2;Temp;Humidity;BMP_temperature;BMP_pressure;BME280_temperature;BME280_humidity;BME280_pressure;Samples;Min_cycle;Max_cycle;Signal;HPM_P1;HPM_P2
2022/12/04 00:00:16;;;;;;;;;24.00;18.33;;;;;6.98;62.41;-13801.59;5056419;28;45419;-84
2022/12/04 00:02:42;;;;;;;;;21.33;19.33;;;;;8.14;62.51;-13821.84;5020688;28;46327;-84
2022/12/04 00:05:08;;;;;;;;;21.67;18.00;;;;;8.14;62.30;-13821.84;5015655;28;48718;-84
2022/12/04 00:07:34;;;;;;;;;24.33;22.67;;;;;8.14;62.34;-13821.84;5040321;28;45515;-83
2022/12/04 00:10:00;;;;;;;;;22.67;21.33;;;;;6.86;62.38;-13799.56;5018015;28;45606;-82
2022/12/04 00:12:25;;;;;;;;;20.00;17.00;;;;;8.15;62.55;-13821.94;5035855;28;45493;-84
2022/12/04 00:14:51;;;;;;;;;19.67;17.33;;;;;8.14;62.54;-13821.84;5033854;28;46521;-83
2022/12/04 00:17:17;;;;;;;;;23.00;18.33;;;;;8.11;62.74;-13821.31;5043122;28;45526;-84
2022/12/04 00:19:42;;;;;;;;;20.33;19.33;;;;;6.89;62.40;-13800.00;5037683;28;45457;-83
2022/12/04 00:22:08;;;;;;;;;20.00;18.67;;;;;7.79;62.13;-13815.72;5043279;28;45402;-84
2022/12/04 00:24:34;;;;;;;;;23.33;17.67;;;;;7.57;62.62;-13811.88;5039522;28;45512;-84
2022/12/04 00:26:59;;;;;;;;;16.00;13.33;;;;;8.11;62.17;-13821.22;5038531;28;47193;-84
2022/12/04 00:29:25;;;;;;;;;19.00;17.00;;;;;8.10;62.60;-13821.16;5033037;28;45854;-84
2022/12/04 00:31:51;;;;;;;;;22.67;18.00;;;;;7.35;62.08;-13478.47;5015089;28;45725;-84
2022/12/04 00:34:16;;;;;;;;;19.67;15.33;;;;;7.92;62.26;-13487.97;5036027;28;46109;-84
2022/12/04 00:36:43;;;;;;;;;24.33;21.67;;;;;7.70;62.25;-13484.25;5045705;28;45486;-84
2022/12/04 00:39:11;;;;;;;;;22.00;22.00;;;;;8.07;62.36;-13490.56;5040829;28;45549;-84
2022/12/04 00:41:37;;;;;;;;;20.33;16.67;;;;;7.26;62.29;-13476.81;5027661;28;45572;-84
2022/12/04 00:44:06;;;;;;;;;22.67;22.67;;;;;7.31;62.51;-13477.78;5037239;28;47411;-83
2022/12/04 00:46:32;;;;;;;;;23.67;21.33;;;;;7.89;62.15;-13487.56;5050705;28;45584;-84
2022/12/04 00:49:00;;;;;;;;;21.67;19.67;;;;;7.36;62.57;-13478.63;5035841;28;45482;-84
2022/12/04 00:51:27;;;;;;;;;19.00;16.67;;;;;7.28;62.32;-13477.25;5051294;28;45465;-84
2022/12/04 00:53:53;;;;;;;;;24.33;18.33;;;;;8.01;62.71;-13489.63;5031980;28;47221;-85
2022/12/04 00:56:23;;;;;;;;;27.33;21.67;;;;;7.83;62.66;-13486.50;5033920;28;45508;-85
2022/12/04 00:58:52;;;;;;;;;20.67;17.00;;;;;8.02;62.58;-13489.78;5035947;28;45471;-84
2022/12/04 01:01:19;;;;;;;;;0.00;0.00;;;;;6.93;61.94;-13141.81;5049710;28;45316;-85
2022/12/04 01:03:45;;;;;;;;;21.00;15.67;;;;;7.38;62.23;-13478.91;5056899;28;45456;-84
2022/12/04 01:06:20;;;;;;;;;20.00;18.33;;;;;7.68;62.09;-13154.06;5053285;28;45311;-85
2022/12/04 01:08:47;;;;;;;;;28.00;23.00;;;;;7.36;62.86;-13148.88;5046830;28;45348;-85
2022/12/04 01:11:13;;;;;;;;;21.00;17.00;;;;;7.03;62.55;-13473.00;5046377;28;45556;-85
2022/12/04 01:13:39;;;;;;;;;17.67;14.00;;;;;6.92;62.61;-13141.66;5055992;28;46066;-85
2022/12/04 01:16:04;;;;;;;;;21.67;16.67;;;;;7.94;62.67;-13158.34;5055330;28;45540;-85
2022/12/04 01:18:30;;;;;;;;;21.00;17.00;;;;;7.61;62.30;-13153.06;5045922;28;45466;-85
2022/12/04 01:20:58;;;;;;;;;22.00;19.67;;;;;7.89;62.31;-13487.47;5054715;28;45474;-85
2022/12/04 01:23:24;;;;;;;;;22.67;18.33;;;;;7.71;62.58;-13484.44;5056657;28;45423;-85
2022/12/04 01:25:56;;;;;;;;;20.67;18.67;;;;;7.95;62.88;-13488.59;5055984;28;45676;-85
2022/12/04 01:28:23;;;;;;;;;26.67;20.33;;;;;7.56;62.62;-13481.94;5046290;28;45382;-84
2022/12/04 01:31:07;;;;;;;;;22.00;19.00;;;;;7.11;62.77;-13144.75;5030932;28;45553;-85
2022/12/04 01:33:35;;;;;;;;;24.00;20.00;;;;;6.66;62.25;-13466.78;5022366;28;48134;-85
2022/12/04 01:36:03;;;;;;;;;26.67;19.67;;;;;7.11;62.75;-13474.41;5018711;28;45342;-85
2022/12/04 01:38:28;;;;;;;;;16.00;14.33;;;;;7.09;62.76;-13144.50;5040069;28;45414;-85
2022/12/04 01:40:54;;;;;;;;;22.33;20.67;;;;;6.62;62.28;-13466.00;5027023;28;45555;-85
2022/12/04 01:43:20;;;;;;;;;18.00;16.33;;;;;6.77;62.67;-13139.22;5055185;28;46044;-85
2022/12/04 01:45:49;;;;;;;;;23.00;18.00;;;;;7.89;62.69;-13487.47;5040637;28;45517;-84
2022/12/04 01:48:20;;;;;;;;;25.33;21.33;;;;;7.89;62.66;-13487.56;5054873;28;45602;-85
2022/12/04 01:50:50;;;;;;;;;21.00;19.00;;;;;6.89;62.49;-13470.69;5056320;28;45536;-85
2022/12/04 01:53:17;;;;;;;;;28.33;21.67;;;;;7.86;62.69;-13486.94;5041386;28;46628;-85
2022/12/04 01:55:45;;;;;;;;;21.33;18.00;;;;;7.01;62.40;-13472.59;5037694;28;46096;-85
2022/12/04 01:58:11;;;;;;;;;23.00;17.33;;;;;7.93;62.45;-13488.16;5055056;28;45446;-85
2022/12/04 02:00:37;;;;;;;;;22.00;19.67;;;;;6.81;62.83;-13469.28;5055321;28;45348;-85
2022/12/04 02:03:02;;;;;;;;;24.33;21.00;;;;;7.88;62.68;-13487.28;5038920;28;45607;-85
2022/12/04 02:05:28;;;;;;;;;30.00;20.67;;;;;6.73;62.62;-13468.00;5054795;28;45427;-85
2022/12/04 02:07:59;;;;;;;;;23.00;23.00;;;;;7.00;62.57;-13142.91;5054956;28;45307;-84
2022/12/04 02:10:43;;;;;;;;;19.00;19.00;;;;;6.55;62.65;-13135.59;5053896;28;45682;-84
2022/12/04 02:13:28;;;;;;;;;25.00;21.33;;;;;7.01;62.56;-13472.59;5006508;28;47139;-84
2022/12/04 02:16:14;;;;;;;;;20.00;17.00;;;;;6.63;62.80;-13136.88;5032411;28;45479;-85
2022/12/04 02:18:53;;;;;;;;;23.00;20.33;;;;;7.89;62.67;-13487.47;5050407;28;45502;-84
2022/12/04 02:21:23;;;;;;;;;23.00;19.67;;;;;7.85;62.83;-13156.91;5031158;28;45352;-85
2022/12/04 02:24:11;;;;;;;;;25.00;22.00;;;;;7.81;63.11;-13486.16;5038909;28;47181;-85
2022/12/04 02:26:48;;;;;;;;;21.33;19.00;;;;;6.39;63.04;-13132.94;5046150;28;45817;-85
2022/12/04 02:29:28;;;;;;;;;27.67;24.00;;;;;7.84;62.92;-13486.69;5052156;28;45522;-85
2022/12/04 02:32:00;;;;;;;;;23.67;22.33;;;;;7.77;62.98;-13485.56;5051963;28;45427;-85
2022/12/04 02:34:40;;;;;;;;;22.33;20.33;;;;;6.99;63.06;-13472.31;5025456;28;45718;-85
2022/12/04 02:37:15;;;;;;;;;22.00;20.00;;;;;7.53;62.87;-13481.50;5023647;28;45989;-85
2022/12/04 02:40:16;;;;;;;;;20.67;17.67;;;;;7.85;62.70;-13486.84;5035070;28;45705;-85
2022/12/04 02:42:48;;;;;;;;;26.67;24.33;;;;;6.96;62.66;-13142.31;4928421;28;45893;-85
2022/12/04 02:45:22;;;;;;;;;27.00;22.33;;;;;6.67;62.53;-13137.63;4953938;28;46257;-84
2022/12/04 02:47:51;;;;;;;;;25.33;22.00;;;;;6.47;62.62;-13463.56;4954109;28;45474;-85
2022/12/04 02:50:21;;;;;;;;;27.33;21.67;;;;;7.87;62.88;-13487.13;4954412;28;45401;-85
2022/12/04 02:53:07;;;;;;;;;33.33;23.00;;;;;7.85;63.12;-13486.78;4950482;28;45536;-85
2022/12/04 02:55:43;;;;;;;;;26.33;22.33;;;;;6.82;62.90;-13469.47;4934606;28;47260;-85
2022/12/04 02:58:22;;;;;;;;;21.67;18.67;;;;;7.85;62.95;-13486.78;4941865;28;45538;-84
2022/12/04 03:00:51;;;;;;;;;25.00;19.00;;;;;7.07;63.15;-13473.63;4954489;28;45689;-84
2022/12/04 03:03:22;;;;;;;;;21.33;20.00;;;;;6.68;62.82;-13467.13;4952995;28;45684;-84
2022/12/04 03:05:48;;;;;;;;;22.00;21.00;;;;;7.86;63.31;-13486.94;4954427;28;46291;-85
2022/12/04 03:08:20;;;;;;;;;27.33;24.33;;;;;7.75;63.08;-13815.09;4953757;28;45608;-85
2022/12/04 03:10:52;;;;;;;;;20.67;19.67;;;;;7.77;63.06;-13815.34;4943234;28;45683;-84
2022/12/04 03:13:23;;;;;;;;;26.67;22.67;;;;;7.89;63.05;-13817.50;4947076;28;45607;-84
2022/12/04 03:16:02;;;;;;;;;25.33;22.00;;;;;6.70;63.36;-13467.47;4949814;28;45526;-85
2022/12/04 03:18:35;;;;;;;;;28.00;23.67;;;;;7.57;63.36;-13811.88;4972110;28;45592;-85
2022/12/04 03:21:09;;;;;;;;;26.33;26.33;;;;;7.19;63.47;-13805.34;5035057;28;45507;-85
2022/12/04 03:23:43;;;;;;;;;24.00;21.00;;;;;6.83;63.47;-13799.00;5034380;28;45755;-85
2022/12/04 03:26:17;;;;;;;;;23.67;23.33;;;;;7.89;63.25;-13817.41;5023030;28;46278;-85
2022/12/04 03:28:56;;;;;;;;;25.67;23.00;;;;;7.42;63.64;-13809.19;5036099;28;45560;-85
2022/12/04 03:31:37;;;;;;;;;25.00;22.67;;;;;7.45;63.16;-13809.81;5035456;28;45342;-85
2022/12/04 03:34:06;;;;;;;;;32.67;25.00;;;;;7.50;63.43;-13810.72;5030776;28;45619;-84
2022/12/04 03:36:50;;;;;;;;;29.00;23.33;;;;;7.85;63.29;-13816.78;5028603;28;47871;-85
2022/12/04 03:39:37;;;;;;;;;31.00;26.33;;;;;7.85;63.13;-13816.69;5022996;28;45513;-85
2022/12/04 03:42:14;;;;;;;;;25.33;20.67;;;;;7.85;63.20;-13816.78;5034692;28;45482;-85
2022/12/04 03:44:53;;;;;;;;;25.67;22.67;;;;;7.88;63.10;-13817.22;5028360;28;45320;-85
2022/12/04 03:47:36;;;;;;;;;24.67;23.33;;;;;7.90;63.32;-13817.56;5034518;28;47423;-84
2022/12/04 03:50:12;;;;;;;;;25.33;22.33;;;;;6.49;62.98;-13793.13;5036753;28;45368;-85
2022/12/04 03:52:49;;;;;;;;;28.67;26.00;;;;;7.83;63.07;-13816.41;5049199;28;45633;-85
2022/12/04 03:55:23;;;;;;;;;37.00;23.33;;;;;7.06;63.37;-13473.44;5042111;28;45719;-84
2022/12/04 03:57:55;;;;;;;;;27.00;25.33;;;;;7.86;63.51;-13816.88;5035099;28;46418;-85
2022/12/04 04:00:21;;;;;;;;;22.00;19.67;;;;;7.02;63.34;-13802.31;5052029;28;47089;-85
2022/12/04 04:03:12;;;;;;;;;28.33;23.33;;;;;6.67;63.37;-13796.16;5025356;28;45549;-85
2022/12/04 04:05:43;;;;;;;;;26.00;23.33;;;;;7.82;63.31;-14146.22;5040174;28;45699;-85
2022/12/04 04:08:25;;;;;;;;;28.33;25.00;;;;;7.90;63.28;-13817.56;5042446;28;46369;-85
2022/12/04 04:10:54;;;;;;;;;25.00;22.67;;;;;7.92;63.21;-13817.94;5034336;28;45350;-85
2022/12/04 04:24:47;;;;;;;;;30.33;26.00;;;;;6.51;63.20;-13793.47;5048688;28;45734;-86
2022/12/04 04:27:13;;;;;;;;;35.67;27.00;;;;;6.94;63.37;-13800.88;5038021;28;45543;-85
2022/12/04 04:29:38;;;;;;;;;25.33;23.67;;;;;6.82;63.29;-13798.84;5037951;28;46076;-85
2022/12/04 04:32:12;;;;;;;;;25.67;23.00;;;;;7.82;63.02;-13816.34;5036600;28;45521;-85
2022/12/04 04:34:56;;;;;;;;;28.67;24.00;;;;;6.69;63.28;-13796.59;5047219;28;45493;-85
2022/12/04 04:37:55;;;;;;;;;22.67;17.33;;;;;7.46;63.30;-13810.00;5057114;28;45696;-85
2022/12/04 04:40:39;;;;;;;;;29.33;25.67;;;;;7.24;63.40;-13806.16;5032261;28;47824;-86
2022/12/04 04:43:28;;;;;;;;;23.67;23.33;;;;;7.51;63.26;-13810.88;5042747;28;45482;-86
2022/12/04 04:46:01;;;;;;;;;31.33;27.33;;;;;6.44;63.50;-13792.22;5043778;28;45387;-85
2022/12/04 04:48:31;;;;;;;;;32.67;25.67;;;;;7.87;63.46;-13817.13;5032158;28;45517;-85
2022/12/04 04:50:59;;;;;;;;;24.00;22.67;;;;;7.32;63.06;-13807.59;5055670;28;45513;-85
2022/12/04 04:53:32;;;;;;;;;28.33;24.33;;;;;7.01;63.41;-13802.06;5025575;28;45745;-86
2022/12/04 04:55:58;;;;;;;;;25.00;23.67;;;;;6.80;63.55;-14127.81;5056829;28;45636;-85
2022/12/04 04:58:25;;;;;;;;;28.33;26.00;;;;;7.56;63.32;-13811.69;5055551;28;45485;-85
2022/12/04 05:01:03;;;;;;;;;30.00;24.67;;;;;6.65;63.21;-13795.88;5055017;28;45517;-85
2022/12/04 05:03:29;;;;;;;;;31.00;27.33;;;;;7.10;63.41;-13803.75;5027827;28;45443;-86
2022/12/04 05:05:54;;;;;;;;;25.67;22.67;;;;;6.99;63.17;-13801.78;5040603;28;45504;-85
2022/12/04 05:08:20;;;;;;;;;29.00;25.00;;;;;7.81;63.47;-13816.06;5046166;28;45402;-85
2022/12/04 05:10:47;;;;;;;;;30.00;24.00;;;;;7.89;63.03;-13817.41;5036986;28;46559;-85
2022/12/04 05:13:13;;;;;;;;;26.33;24.33;;;;;7.90;63.56;-13817.56;5036546;28;45679;-85
2022/12/04 05:15:39;;;;;;;;;30.00;27.00;;;;;7.04;63.30;-13802.59;5033507;28;45813;-85
2022/12/04 05:18:05;;;;;;;;;25.00;25.00;;;;;6.69;63.29;-13796.59;5028876;28;45645;-86
2022/12/04 05:20:31;;;;;;;;;23.33;21.33;;;;;7.90;63.16;-13817.66;5036943;28;47380;-85
2022/12/04 05:22:57;;;;;;;;;25.00;22.33;;;;;7.40;63.26;-13809.00;5036346;28;45544;-85
2022/12/04 05:25:22;;;;;;;;;29.00;26.00;;;;;7.88;63.33;-13817.31;5036376;28;45383;-85
2022/12/04 05:27:48;;;;;;;;;25.33;22.00;;;;;7.57;63.24;-13811.88;5037270;28;45540;-85
2022/12/04 05:30:13;;;;;;;;;32.00;27.33;;;;;6.78;63.54;-13798.03;5037712;28;46886;-85
2022/12/04 05:32:39;;;;;;;;;27.67;25.00;;;;;6.48;63.21;-13792.84;5019021;28;45527;-85
2022/12/04 05:35:04;;;;;;;;;26.50;23.50;;;;;7.57;63.31;-14141.72;5037590;28;45387;-85
2022/12/04 05:37:30;;;;;;;;;26.33;23.00;;;;;7.08;63.64;-14132.78;5019546;28;45490;-85
2022/12/04 05:39:55;;;;;;;;;27.33;24.33;;;;;7.94;63.49;-14148.22;5038140;28;46205;-85
2022/12/04 05:42:21;;;;;;;;;21.67;21.33;;;;;7.31;63.60;-14136.94;5028505;28;45716;-85
2022/12/04 05:44:49;;;;;;;;;28.33;23.67;;;;;7.12;63.26;-14463.09;5035922;28;45553;-85
2022/12/04 05:47:15;;;;;;;;;28.00;23.33;;;;;7.98;63.70;-14478.91;5037125;28;45722;-86
2022/12/04 05:49:40;;;;;;;;;28.33;25.67;;;;;7.22;63.63;-14464.78;5036122;28;46285;-85
2022/12/04 05:52:06;;;;;;;;;26.33;24.00;;;;;6.66;63.62;-14454.47;5036495;28;45529;-85
2022/12/04 05:54:31;;;;;;;;;26.67;25.67;;;;;7.99;63.40;-14149.16;5037686;28;45857;-85
2022/12/04 05:56:57;;;;;;;;;26.00;24.00;;;;;6.31;63.40;-14448.13;5036931;28;45549;-86
2022/12/04 05:59:23;;;;;;;;;29.67;24.00;;;;;7.45;63.07;-14139.41;5048471;28;47133;-86
2022/12/04 06:01:51;;;;;;;;;29.67;26.67;;;;;7.30;63.23;-14136.75;5023742;28;45380;-86
2022/12/04 06:04:16;;;;;;;;;32.33;27.33;;;;;6.37;62.98;-14119.97;5050536;28;45413;-86
2022/12/04 06:06:42;;;;;;;;;32.33;29.00;;;;;6.53;63.08;-14123.03;5027760;28;45479;-85
2022/12/04 06:09:08;;;;;;;;;23.33;20.67;;;;;7.06;63.17;-13802.94;5036734;28;45731;-86
2022/12/04 06:11:36;;;;;;;;;31.00;26.67;;;;;7.16;63.23;-14134.25;5034884;28;45792;-85
2022/12/04 06:14:04;;;;;;;;;28.67;28.00;;;;;7.13;63.30;-14133.69;5036509;28;45794;-85
2022/12/04 06:16:33;;;;;;;;;30.33;23.67;;;;;6.71;62.82;-13467.56;5034377;28;45549;-85
2022/12/04 06:19:02;;;;;;;;;32.50;25.50;;;;;7.61;63.01;-14142.34;5033632;28;47372;-86
2022/12/04 06:21:33;;;;;;;;;26.00;23.67;;;;;7.78;63.34;-14145.47;5031674;28;45298;-85
2022/12/04 06:23:58;;;;;;;;;22.33;17.33;;;;;7.52;63.45;-14140.69;5017616;28;45417;-85
2022/12/04 06:26:25;;;;;;;;;40.00;33.00;;;;;6.77;63.76;-14127.25;5036241;28;45504;-85
2022/12/04 06:28:55;;;;;;;;;27.33;26.33;;;;;7.89;63.47;-14147.41;5038509;28;45493;-86
2022/12/04 06:31:22;;;;;;;;;25.67;23.00;;;;;7.52;63.36;-14140.78;5051723;28;45450;-85
2022/12/04 06:33:47;;;;;;;;;30.33;24.67;;;;;7.13;63.35;-13804.28;5023718;28;46130;-85
2022/12/04 06:36:16;;;;;;;;;25.00;22.00;;;;;7.33;63.20;-14137.38;5045267;28;45433;-85
2022/12/04 06:38:42;;;;;;;;;32.00;25.33;;;;;7.47;63.26;-13810.19;5055275;28;46591;-86
2022/12/04 06:41:10;;;;;;;;;27.00;23.00;;;;;6.64;63.01;-14124.97;5040849;28;45511;-86
2022/12/04 06:43:36;;;;;;;;;28.00;25.00;;;;;7.01;63.23;-14131.59;5047939;28;45723;-85
2022/12/04 06:46:05;;;;;;;;;33.33;27.67;;;;;6.93;62.80;-14130.22;5047941;28;45936;-85
2022/12/04 06:48:31;;;;;;;;;39.33;28.33;;;;;7.89;63.59;-14147.31;5017370;28;47287;-85
2022/12/04 06:51:02;;;;;;;;;33.00;26.00;;;;;7.16;62.99;-14134.34;5032178;28;45465;-85
2022/12/04 06:53:29;;;;;;;;;32.67;23.00;;;;;7.85;63.15;-14146.66;5035501;28;45673;-86
2022/12/04 06:56:04;;;;;;;;;30.33;25.67;;;;;7.35;63.22;-14137.75;5035253;28;45577;-85
2022/12/04 06:58:30;;;;;;;;;29.67;26.33;;;;;6.63;63.56;-14124.69;5035345;28;46720;-85
2022/12/04 07:00:57;;;;;;;;;29.33;24.67;;;;;6.81;63.03;-14127.91;5034839;28;45402;-86
2022/12/04 07:03:23;;;;;;;;;29.00;27.33;;;;;7.41;63.44;-14138.75;5017317;28;45827;-85
2022/12/04 07:05:49;;;;;;;;;27.67;24.67;;;;;7.72;63.17;-14144.38;5035744;28;45628;-85
2022/12/04 07:08:15;;;;;;;;;34.33;26.00;;;;;6.72;63.23;-14126.34;5020048;28;45800;-86
2022/12/04 07:10:42;;;;;;;;;28.00;24.33;;;;;7.70;63.34;-14143.91;5034079;28;45572;-85
2022/12/04 07:13:08;;;;;;;;;24.33;24.00;;;;;6.73;63.11;-14126.63;5035948;28;45532;-85
2022/12/04 07:15:35;;;;;;;;;28.67;27.33;;;;;7.73;63.18;-13814.63;5033248;28;46408;-85
2022/12/04 07:18:00;;;;;;;;;26.67;24.00;;;;;6.97;63.06;-13801.44;5007822;28;48474;-86
2022/12/04 07:20:26;;;;;;;;;27.33;25.33;;;;;6.88;63.32;-13799.91;5035360;28;45731;-85
2022/12/04 07:22:51;;;;;;;;;31.33;26.67;;;;;7.14;63.60;-14133.88;5035845;28;45433;-86
2022/12/04 07:25:17;;;;;;;;;23.00;22.33;;;;;7.22;63.43;-14135.34;5028097;28;45783;-85
2022/12/04 07:27:42;;;;;;;;;19.33;15.33;;;;;7.31;63.46;-14137.00;5034572;28;45698;-85
2022/12/04 07:30:09;;;;;;;;;29.33;24.67;;;;;7.64;63.67;-14142.91;5034127;28;45368;-86
2022/12/04 07:32:34;;;;;;;;;33.00;27.67;;;;;7.99;63.62;-14149.16;5034633;28;45801;-85
2022/12/04 07:35:00;;;;;;;;;33.00;29.33;;;;;6.67;63.55;-14125.41;5031379;28;45506;-85
2022/12/04 07:37:35;;;;;;;;;35.00;28.67;;;;;7.05;63.34;-14132.22;5017321;28;46371;-88
2022/12/04 07:40:05;;;;;;;;;34.00;28.00;;;;;7.63;63.37;-14142.63;5029248;28;45532;-86
2022/12/04 07:42:34;;;;;;;;;30.33;27.33;;;;;6.20;63.28;-14116.94;4995793;28;45816;-86
2022/12/04 07:44:59;;;;;;;;;28.00;24.33;;;;;6.79;63.50;-14127.53;5021964;28;45460;-87
2022/12/04 07:47:49;;;;;;;;;26.67;23.67;;;;;6.21;63.48;-14117.13;5032072;28;46207;-89
2022/12/04 07:50:17;;;;;;;;;38.67;31.33;;;;;7.48;63.13;-14140.06;5008407;28;45558;-88
2022/12/04 07:52:43;;;;;;;;;38.00;32.67;;;;;6.59;63.23;-14123.94;5024401;28;45578;-88
2022/12/04 07:55:08;;;;;;;;;30.00;28.33;;;;;7.56;63.93;-14471.22;5030023;28;45601;-87
2022/12/04 07:57:37;;;;;;;;;29.00;27.33;;;;;6.44;63.58;-14450.38;5018166;28;46581;-87
2022/12/04 08:00:03;;;;;;;;;26.33;23.67;;;;;6.86;63.71;-14128.81;4993970;28;46888;-86
2022/12/04 08:02:28;;;;;;;;;26.67;25.33;;;;;6.60;63.37;-14453.41;5002007;28;45551;-85
2022/12/04 08:04:54;;;;;;;;;30.67;26.67;;;;;7.27;63.65;-14465.75;5018291;28;45760;-86
2022/12/04 08:07:19;;;;;;;;;29.00;24.67;;;;;6.44;63.30;-14450.47;5021006;28;46101;-86
2022/12/04 08:09:44;;;;;;;;;29.33;24.67;;;;;8.08;63.56;-14480.69;5008777;28;45537;-86
2022/12/04 08:12:10;;;;;;;;;28.33;25.67;;;;;7.20;63.38;-14464.50;5018804;28;45487;-87
2022/12/04 08:14:35;;;;;;;;;37.00;26.00;;;;;6.64;63.64;-14454.19;5015501;28;45558;-87
2022/12/04 08:17:01;;;;;;;;;26.67;20.00;;;;;6.83;63.48;-14457.59;5019046;28;46583;-87
2022/12/04 08:19:34;;;;;;;;;29.00;24.00;;;;;7.09;63.51;-14462.44;5025858;28;45445;-87
2022/12/04 08:21:59;;;;;;;;;27.67;24.67;;;;;7.38;63.28;-14467.91;5034076;28;45399;-86
2022/12/04 08:24:24;;;;;;;;;29.67;25.00;;;;;7.79;63.59;-14475.50;5041474;28;45551;-86
2022/12/04 08:26:50;;;;;;;;;28.50;22.50;;;;;6.88;63.62;-14458.53;5024748;28;47135;-86
2022/12/04 08:29:15;;;;;;;;;29.33;26.00;;;;;7.93;63.52;-14478.03;5045942;28;45561;-87
2022/12/04 08:31:41;;;;;;;;;29.67;23.33;;;;;6.81;63.30;-14457.22;5033779;28;45534;-86
2022/12/04 08:34:12;;;;;;;;;23.33;18.33;;;;;6.58;63.52;-14452.94;5041765;28;45530;-86
2022/12/04 08:36:37;;;;;;;;;30.00;26.33;;;;;6.48;63.38;-14451.16;5046092;28;46491;-86
2022/12/04 08:39:12;;;;;;;;;26.33;22.67;;;;;7.00;63.28;-14460.72;5038327;28;45380;-87
2022/12/04 08:41:38;;;;;;;;;30.67;27.00;;;;;6.72;63.18;-14455.59;5024267;28;45623;-88
2022/12/04 08:44:03;;;;;;;;;27.67;25.00;;;;;7.00;63.18;-14460.81;5042917;28;45580;-87
2022/12/04 08:46:29;;;;;;;;;26.50;26.50;;;;;8.22;62.99;-14483.44;5032949;28;48311;-87
2022/12/04 08:48:55;;;;;;;;;22.00;19.25;;;;;6.44;63.06;-14450.38;5029681;28;45767;-87
2022/12/04 08:51:24;;;;;;;;;25.50;25.00;;;;;7.37;63.21;-14467.72;5039371;28;45588;-87
2022/12/04 08:53:57;;;;;;;;;24.50;23.75;;;;;7.66;63.15;-14473.03;5033212;28;46062;-86
2022/12/04 08:56:24;;;;;;;;;30.25;26.50;;;;;6.75;63.21;-14456.28;5035666;28;46408;-86
2022/12/04 08:58:49;;;;;;;;;32.67;29.00;;;;;7.61;63.15;-14472.19;5035068;28;45559;-86
2022/12/04 09:01:16;;;;;;;;;33.50;27.50;;;;;6.53;62.91;-14452.19;5007973;28;45714;-86
2022/12/04 09:03:41;;;;;;;;;33.25;29.50;;;;;8.17;63.13;-14482.50;5026397;28;45555;-86
2022/12/04 09:06:11;;;;;;;;;30.67;27.67;;;;;6.61;63.02;-14453.63;5037657;28;45767;-86
2022/12/04 09:08:37;;;;;;;;;29.25;25.50;;;;;7.08;63.35;-14791.75;5030430;28;45584;-86
2022/12/04 09:11:31;;;;;;;;;40.00;30.50;;;;;6.60;63.23;-14782.59;5017157;28;45530;-86
2022/12/04 09:28:07;;;;;;;;;37.33;28.67;;;;;7.28;62.50;-14465.94;4953689;28;45635;-85
2022/12/04 09:30:35;;;;;;;;;33.67;28.33;;;;;8.48;62.58;-14818.25;4926981;28;45587;-84
2022/12/04 09:33:00;;;;;;;;;31.25;29.25;;;;;7.16;62.51;-14463.84;4929838;28;46778;-83
2022/12/04 09:35:25;;;;;;;;;32.50;29.00;;;;;7.42;62.30;-14468.50;4934188;28;45474;-84
2022/12/04 09:37:51;;;;;;;;;29.00;25.67;;;;;8.55;62.79;-14489.41;4953313;28;45423;-85
2022/12/04 09:41:07;;;;;;;;;27.25;24.00;;;;;6.91;62.67;-14459.22;4952843;28;45769;-86
2022/12/04 09:43:46;;;;;;;;;32.67;31.33;;;;;6.83;62.48;-14786.88;4926980;28;46028;-85
2022/12/04 09:46:24;;;;;;;;;36.75;32.25;;;;;7.01;62.51;-14790.41;4954770;28;45567;-85
2022/12/04 09:48:59;;;;;;;;;36.33;30.00;;;;;7.19;62.94;-14464.41;4953592;28;46397;-85
2022/12/04 09:51:27;;;;;;;;;32.00;28.00;;;;;7.39;62.43;-14797.69;4935565;28;45485;-85
2022/12/04 09:54:04;;;;;;;;;30.67;27.67;;;;;6.79;62.66;-14786.22;4950592;28;45336;-85
2022/12/04 09:56:31;;;;;;;;;30.33;25.00;;;;;8.13;62.60;-14811.72;4925093;28;45619;-85
2022/12/04 09:59:44;;;;;;;;;33.67;29.67;;;;;7.79;62.75;-14805.19;4995722;28;46986;-87
2022/12/04 10:02:28;;;;;;;;;34.00;29.50;;;;;8.63;62.70;-14821.25;5022335;28;45498;-85
2022/12/04 10:05:02;;;;;;;;;33.33;30.00;;;;;7.82;62.52;-14805.78;5038477;28;45556;-84
2022/12/04 10:07:55;;;;;;;;;37.75;34.50;;;;;6.45;62.75;-14779.78;5055254;28;45801;-85
2022/12/04 10:10:38;;;;;;;;;32.00;27.00;;;;;8.15;62.88;-15141.97;5052910;28;45679;-84
2022/12/04 10:13:18;;;;;;;;;45.75;33.50;;;;;8.71;62.66;-15152.88;5034928;28;45664;-84
2022/12/04 10:15:59;;;;;;;;;37.00;27.00;;;;;8.03;62.94;-15139.78;5031085;28;45578;-82
2022/12/04 10:18:56;;;;;;;;;35.25;32.25;;;;;8.48;62.68;-15148.38;5029580;28;45463;-84
2022/12/04 10:21:31;;;;;;;;;28.67;25.00;;;;;8.48;62.71;-15148.38;5029644;28;46220;-85
2022/12/04 10:24:26;;;;;;;;;28.67;28.33;;;;;7.64;62.38;-14802.28;5021424;28;45517;-84
2022/12/04 10:26:57;;;;;;;;;35.75;31.25;;;;;7.13;62.30;-14792.72;5028152;28;45534;-85
2022/12/04 10:29:35;;;;;;;;;44.25;32.75;;;;;7.78;62.73;-15134.88;5025197;28;45743;-84
2022/12/04 10:32:16;;;;;;;;;30.25;25.75;;;;;7.69;62.53;-15133.06;5034031;28;46671;-84
2022/12/04 10:35:18;;;;;;;;;33.50;29.75;;;;;7.81;62.57;-15135.38;5049592;28;45877;-85
2022/12/04 10:37:44;;;;;;;;;28.75;28.00;;;;;7.31;62.58;-15125.56;5021657;28;47353;-84
2022/12/04 10:40:45;;;;;;;;;29.67;29.33;;;;;7.76;62.55;-15134.38;5051477;28;45674;-85
2022/12/04 10:43:33;;;;;;;;;37.25;31.25;;;;;7.82;62.27;-15135.66;5063974;28;46519;-86
2022/12/04 10:46:01;;;;;;;;;34.00;32.33;;;;;7.90;62.25;-15137.06;5036863;28;45466;-88
2022/12/04 10:51:59;;;;;;;;;36.33;31.67;;;;;7.98;63.05;-15798.34;5026634;28;45441;-92
2022/12/04 10:54:36;;;;;;;;;35.33;28.33;;;;;9.11;62.26;-15491.09;5020584;28;47642;-87
2022/12/04 10:57:15;;;;;;;;;36.00;32.50;;;;;7.37;62.04;-15126.75;5051065;28;45615;-85
2022/12/04 10:59:51;;;;;;;;;31.50;27.25;;;;;7.64;62.01;-15132.06;5052910;28;45491;-87
2022/12/04 11:05:21;;;;;;;;;30.67;28.33;;;;;8.12;62.05;-14811.53;5524910;22;45479;-87
2022/12/04 11:08:32;;;;;;;;;40.00;31.25;;;;;9.08;61.95;-15160.16;5010475;28;45859;-85
2022/12/04 11:14:22;;;;;;;;;30.67;29.67;;;;;6.01;61.96;-14771.38;5249708;22;46078;-86
2022/12/04 11:17:39;;;;;;;;;34.75;32.25;;;;;9.22;61.81;-15162.84;5031220;28;47834;-87
2022/12/04 11:20:12;;;;;;;;;39.00;32.00;;;;;9.26;62.01;-15163.66;5035755;28;45584;-86
2022/12/04 11:22:58;;;;;;;;;45.75;35.25;;;;;9.12;61.89;-15160.97;5048651;28;45561;-88
2022/12/04 11:28:36;;;;;;;;;39.50;34.50;;;;;7.42;61.72;-15127.66;5135650;22;45478;-90
2022/12/04 11:43:48;;;;;;;;;46.00;35.50;;;;;9.30;62.17;-15164.44;5038621;28;45510;-89
2022/12/04 11:56:44;;;;;;;;;36.00;32.25;;;;;6.39;61.75;-15107.63;5009417;28;45725;-89
2022/12/04 12:05:17;;;;;;;;;43.33;32.00;;;;;9.52;61.63;-15499.41;5357826;22;45737;-89
2022/12/04 12:19:20;;;;;;;;;43.50;33.25;;;;;9.49;61.85;-15498.88;5580709;22;46168;-89
2022/12/04 12:38:01;;;;;;;;;37.67;33.67;;;;;9.49;61.77;-15168.13;5729134;22;45519;-89
2022/12/04 13:00:23;;;;;;;;;39.75;33.50;;;;;6.44;62.30;-15437.56;5172384;22;45339;-90
2022/12/04 13:09:36;;;;;;;;;44.00;32.75;;;;;9.16;62.42;-15822.56;5042363;22;45577;-84
2022/12/04 13:12:10;;;;;;;;;37.25;33.25;;;;;9.55;63.28;-16491.88;5014335;28;45621;-83
2022/12/04 13:14:35;;;;;;;;;48.25;36.25;;;;;9.16;63.47;-16483.38;5006627;28;45699;-83
2022/12/04 13:17:11;;;;;;;;;39.50;32.75;;;;;8.03;63.02;-16459.09;5017287;28;46207;-84
2022/12/04 13:19:43;;;;;;;;;38.50;33.50;;;;;9.05;63.11;-16150.72;5015769;28;45533;-82
2022/12/04 13:22:27;;;;;;;;;35.50;31.75;;;;;9.56;63.03;-16161.41;5016028;28;45595;-84
2022/12/04 13:25:10;;;;;;;;;44.00;35.00;;;;;9.37;62.65;-15826.88;5021130;28;45676;-84
2022/12/04 13:28:14;;;;;;;;;38.50;34.75;;;;;9.25;62.79;-16154.94;5002542;28;47017;-84
2022/12/04 13:30:53;;;;;;;;;36.00;31.75;;;;;9.52;62.39;-15830.13;4979536;28;46085;-82
2022/12/04 13:33:33;;;;;;;;;33.25;30.75;;;;;9.55;63.02;-16161.28;4996327;28;45654;-84
2022/12/04 13:36:08;;;;;;;;;32.25;30.75;;;;;9.57;62.72;-15831.09;5016763;28;45481;-85
2022/12/04 13:38:51;;;;;;;;;39.00;32.00;;;;;9.57;62.35;-15830.97;5016386;28;45845;-85